sensor_id;sensor_type;location;lat;lon;timestamp;pressure;altitude;pressure_sealevel;temperature;humidity
37078;BME280;22989;55.998;37.212;2023-08-24T00:00:12;36947.25;;;-145.39;61.49
37078;BME280;22989;55.998;37.212;2023-08-24T00:02:38;36929.72;;;-145.39;61.49
37078;BME280;22989;55.998;37.212;2023-08-24T00:05:04;36900.47;;;-145.39;61.52
37078;BME280;22989;55.998;37.212;2023-08-24T00:07:31;36880.97;;;-145.39;61.46
37078;BME280;22989;55.998;37.212;2023-08-24T00:09:58;36900.47;;;-145.39;61.45
37078;BME280;22989;55.998;37.212;2023-08-24T00:12:23;36838.06;;;-145.39;61.61
37078;BME280;22989;55.998;37.212;2023-08-24T00:14:49;36822.47;;;-145.39;61.58
37078;BME280;22989;55.998;37.212;2023-08-24T00:17:15;36869.28;;;-145.39;61.48
37078;BME280;22989;55.998;37.212;2023-08-24T00:19:40;36863.41;;;-145.39;61.49
37078;BME280;22989;55.998;37.212;2023-08-24T00:22:06;36851.72;;;-145.39;61.63
37078;BME280;22989;55.998;37.212;2023-08-24T00:24:31;36847.81;;;-145.39;61.51
37078;BME280;22989;55.998;37.212;2023-08-24T00:26:57;36836.13;;;-145.39;61.58
37078;BME280;22989;55.998;37.212;2023-08-24T00:29:22;36845.88;;;-145.39;61.59
37078;BME280;22989;55.998;37.212;2023-08-24T00:31:48;36841.97;;;-145.39;61.78
37078;BME280;22989;55.998;37.212;2023-08-24T00:34:13;36847.81;;;-145.39;61.61
37078;BME280;22989;55.998;37.212;2023-08-24T00:36:40;36890.72;;;-145.39;61.79
37078;BME280;22989;55.998;37.212;2023-08-24T00:39:06;36857.56;;;-145.39;61.61
37078;BME280;22989;55.998;37.212;2023-08-24T00:41:31;36853.66;;;-145.39;61.72
37078;BME280;22989;55.998;37.212;2023-08-24T00:43:57;36849.78;;;-145.39;61.66
37078;BME280;22989;55.998;37.212;2023-08-24T00:46:23;36877.06;;;-145.39;61.61
37078;BME280;22989;55.998;37.212;2023-08-24T00:48:53;36847.81;;;-145.39;61.75
37078;BME280;22989;55.998;37.212;2023-08-24T00:51:24;36855.63;;;-145.39;61.61
37078;BME280;22989;55.998;37.212;2023-08-24T00:53:50;36906.31;;;-145.39;61.83
37078;BME280;22989;55.998;37.212;2023-08-24T00:56:15;36914.13;;;-145.39;61.73
37078;BME280;22989;55.998;37.212;2023-08-24T00:58:42;36949.22;;;-145.39;61.62
37078;BME280;22989;55.998;37.212;2023-08-24T01:01:10;36953.09;;;-145.39;61.89
37078;BME280;22989;55.998;37.212;2023-08-24T01:03:36;36951.16;;;-145.39;61.90
37078;BME280;22989;55.998;37.212;2023-08-24T01:06:02;36951.16;;;-145.39;61.87
37078;BME280;22989;55.998;37.212;2023-08-24T01:08:27;36918.00;;;-145.39;62.16
37078;BME280;22989;55.998;37.212;2023-08-24T01:11:04;36943.38;;;-145.39;62.05
37078;BME280;22989;55.998;37.212;2023-08-24T01:16:33;36992.09;;;-145.39;62.31
37078;BME280;22989;55.998;37.212;2023-08-24T01:19:03;36982.34;;;-145.39;62.42
37078;BME280;22989;55.998;37.212;2023-08-24T01:21:32;36986.25;;;-145.39;62.38
37078;BME280;22989;55.998;37.212;2023-08-24T01:24:12;36994.06;;;-145.39;62.36
37078;BME280;22989;55.998;37.212;2023-08-24T01:26:41;36988.22;;;-145.39;62.38
37078;BME280;22989;55.998;37.212;2023-08-24T01:29:07;36962.84;;;-145.39;62.48
37078;BME280;22989;55.998;37.212;2023-08-24T01:31:33;37015.50;;;-145.39;62.43
37078;BME280;22989;55.998;37.212;2023-08-24T01:33:58;36988.22;;;-145.39;62.62
37078;BME280;22989;55.998;37.212;2023-08-24T01:36:25;36929.72;;;-145.39;62.58
37078;BME280;22989;55.998;37.212;2023-08-24T01:39:06;36980.41;;;-145.39;62.58
37078;BME280;22989;55.998;37.212;2023-08-24T01:41:36;36925.81;;;-145.39;62.70
37078;BME280;22989;55.998;37.212;2023-08-24T01:44:09;36964.81;;;-145.39;62.56
37078;BME280;22989;55.998;37.212;2023-08-24T01:46:37;36966.75;;;-145.39;62.54
37078;BME280;22989;55.998;37.212;2023-08-24T01:49:05;36997.97;;;-145.39;62.44
37078;BME280;22989;55.998;37.212;2023-08-24T01:51:34;37031.09;;;-145.39;62.72
37078;BME280;22989;55.998;37.212;2023-08-24T01:54:00;36992.09;;;-145.39;62.74
37078;BME280;22989;55.998;37.212;2023-08-24T01:56:26;37050.59;;;-145.39;62.51
37078;BME280;22989;55.998;37.212;2023-08-24T01:58:51;37036.94;;;-145.39;62.58
37078;BME280;22989;55.998;37.212;2023-08-24T02:01:17;37009.66;;;-145.39;62.75
37078;BME280;22989;55.998;37.212;2023-08-24T02:03:43;37035.00;;;-145.39;62.70
37078;BME280;22989;55.998;37.212;2023-08-24T02:06:09;37036.94;;;-145.39;62.85
37078;BME280;22989;55.998;37.212;2023-08-24T02:08:34;37019.41;;;-145.39;62.79
37078;BME280;22989;55.998;37.212;2023-08-24T02:11:02;37077.91;;;-145.39;62.72
37078;BME280;22989;55.998;37.212;2023-08-24T02:13:28;37113.00;;;-145.39;62.81
37078;BME280;22989;55.998;37.212;2023-08-24T02:16:06;37128.59;;;-145.39;62.77
37078;BME280;22989;55.998;37.212;2023-08-24T02:18:34;37124.69;;;-145.39;62.76
37078;BME280;22989;55.998;37.212;2023-08-24T02:21:00;37179.28;;;-145.39;62.86
37078;BME280;22989;55.998;37.212;2023-08-24T02:23:28;37233.91;;;-145.39;62.94
37078;BME280;22989;55.998;37.212;2023-08-24T02:25:56;37237.78;;;-145.39;62.92
37078;BME280;22989;55.998;37.212;2023-08-24T02:28:21;37421.09;;;-145.39;62.92
37078;BME280;22989;55.998;37.212;2023-08-24T02:30:47;37464.00;;;-145.39;62.92
37078;BME280;22989;55.998;37.212;2023-08-24T02:33:13;37606.34;;;-145.39;63.11
37078;BME280;22989;55.998;37.212;2023-08-24T02:35:39;37731.16;;;-145.39;63.03
37078;BME280;22989;55.998;37.212;2023-08-24T02:38:05;37822.84;;;-145.39;63.07
37078;BME280;22989;55.998;37.212;2023-08-24T02:40:32;37978.84;;;-145.39;63.11
37078;BME280;22989;55.998;37.212;2023-08-24T02:42:58;38082.22;;;-145.39;63.17
37078;BME280;22989;55.998;37.212;2023-08-24T02:45:23;38218.75;;;-145.39;63.22
37078;BME280;22989;55.998;37.212;2023-08-24T02:47:49;38290.91;;;-145.39;63.11
37078;BME280;22989;55.998;37.212;2023-08-24T02:50:14;38417.69;;;-145.39;63.18
37078;BME280;22989;55.998;37.212;2023-08-24T02:52:40;38470.38;;;-145.39;63.13
37078;BME280;22989;55.998;37.212;2023-08-24T02:55:06;38603.00;;;-145.39;63.33
37078;BME280;22989;55.998;37.212;2023-08-24T02:57:34;38733.72;;;-145.39;63.37
37078;BME280;22989;55.998;37.212;2023-08-24T03:00:03;38936.59;;;-145.39;63.23
37078;BME280;22989;55.998;37.212;2023-08-24T03:02:32;39297.50;;;-145.39;63.23
37078;BME280;22989;55.998;37.212;2023-08-24T03:04:57;39508.22;;;-145.39;63.28
37078;BME280;22989;55.998;37.212;2023-08-24T03:07:24;39765.78;;;-145.39;63.18
37078;BME280;22989;55.998;37.212;2023-08-24T03:09:49;40138.47;;;-145.39;63.42
37078;BME280;22989;55.998;37.212;2023-08-24T03:12:16;40319.97;;;-145.39;63.42
37078;BME280;22989;55.998;37.212;2023-08-24T03:14:42;40544.38;;;-145.39;63.35
37078;BME280;22989;55.998;37.212;2023-08-24T03:17:08;40946.44;;;-145.39;63.30
37078;BME280;22989;55.998;37.212;2023-08-24T03:19:34;41131.88;;;-145.39;63.43
37078;BME280;22989;55.998;37.212;2023-08-24T03:21:59;41399.28;;;-145.39;63.35
37078;BME280;22989;55.998;37.212;2023-08-24T03:24:25;41545.69;;;-145.39;63.37
37078;BME280;22989;55.998;37.212;2023-08-24T03:26:52;41580.81;;;-145.39;63.30
37078;BME280;22989;55.998;37.212;2023-08-24T03:29:19;41571.06;;;-145.39;63.30
37078;BME280;22989;55.998;37.212;2023-08-24T03:31:45;41592.53;;;-145.39;63.32
37078;BME280;22989;55.998;37.212;2023-08-24T03:34:10;41631.59;;;-145.39;63.18
37078;BME280;22989;55.998;37.212;2023-08-24T03:36:36;41629.63;;;-145.39;63.32
37078;BME280;22989;55.998;37.212;2023-08-24T03:39:03;41705.75;;;-145.39;63.20
37078;BME280;22989;55.998;37.212;2023-08-24T03:41:29;41746.75;;;-145.39;63.17
37078;BME280;22989;55.998;37.212;2023-08-24T03:43:55;41776.03;;;-145.39;63.17
37078;BME280;22989;55.998;37.212;2023-08-24T03:46:20;41789.72;;;-145.39;63.25
37078;BME280;22989;55.998;37.212;2023-08-24T03:48:46;41729.19;;;-145.39;63.30
37078;BME280;22989;55.998;37.212;2023-08-24T03:51:12;41727.25;;;-145.39;63.23
37078;BME280;22989;55.998;37.212;2023-08-24T03:53:37;41641.34;;;-145.39;62.93
37078;BME280;22989;55.998;37.212;2023-08-24T03:56:05;41631.59;;;-145.39;63.06
37078;BME280;22989;55.998;37.212;2023-08-24T03:58:31;41735.03;;;-145.39;63.07
37078;BME280;22989;55.998;37.212;2023-08-24T04:00:58;41717.47;;;-145.39;63.07
37078;BME280;22989;55.998;37.212;2023-08-24T04:03:24;41621.81;;;-145.39;62.95
37078;BME280;22989;55.998;37.212;2023-08-24T04:05:50;41701.84;;;-145.39;62.89
37078;BME280;22989;55.998;37.212;2023-08-24T04:08:16;41666.72;;;-145.39;62.88
37078;BME280;22989;55.998;37.212;2023-08-24T04:10:43;41795.56;;;-145.39;62.90
37078;BME280;22989;55.998;37.212;2023-08-24T04:13:08;41926.38;;;-145.39;63.02
37078;BME280;22989;55.998;37.212;2023-08-24T04:15:35;42006.41;;;-145.39;62.86
37078;BME280;22989;55.998;37.212;2023-08-24T04:18:01;41982.97;;;-145.39;62.90
37078;BME280;22989;55.998;37.212;2023-08-24T04:20:26;41967.38;;;-145.39;62.78
37078;BME280;22989;55.998;37.212;2023-08-24T04:22:52;42047.41;;;-145.39;62.86
37078;BME280;22989;55.998;37.212;2023-08-24T04:25:18;42045.47;;;-145.39;62.82
37078;BME280;22989;55.998;37.212;2023-08-24T04:27:43;42037.66;;;-145.39;62.55
37078;BME280;22989;55.998;37.212;2023-08-24T04:30:09;41947.84;;;-145.39;62.60
37078;BME280;22989;55.998;37.212;2023-08-24T04:32:37;41799.47;;;-145.39;62.50
37078;BME280;22989;55.998;37.212;2023-08-24T04:35:03;41885.38;;;-145.39;62.23
37078;BME280;22989;55.998;37.212;2023-08-24T04:37:28;41914.66;;;-145.39;62.33
37078;BME280;22989;55.998;37.212;2023-08-24T04:39:54;41967.38;;;-145.39;62.36
37078;BME280;22989;55.998;37.212;2023-08-24T04:42:20;41899.03;;;-145.39;62.33
37078;BME280;22989;55.998;37.212;2023-08-24T04:44:45;41807.28;;;-145.39;61.86
37078;BME280;22989;55.998;37.212;2023-08-24T04:47:11;41754.56;;;-145.39;61.85
37078;BME280;22989;55.998;37.212;2023-08-24T04:49:37;41735.03;;;-145.39;61.92
37078;BME280;22989;55.998;37.212;2023-08-24T04:52:03;41735.03;;;-145.39;61.91
37078;BME280;22989;55.998;37.212;2023-08-24T04:54:28;41834.59;;;-145.39;61.78
37078;BME280;22989;55.998;37.212;2023-08-24T04:56:54;41938.09;;;-145.39;61.78
37078;BME280;22989;55.998;37.212;2023-08-24T04:59:20;42008.38;;;-145.39;61.63
37078;BME280;22989;55.998;37.212;2023-08-24T05:01:45;42170.41;;;-145.39;61.52
37078;BME280;22989;55.998;37.212;2023-08-24T05:04:11;42037.66;;;-145.39;61.71
37078;BME280;22989;55.998;37.212;2023-08-24T05:06:36;41973.22;;;-145.39;61.71
37078;BME280;22989;55.998;37.212;2023-08-24T05:09:02;41860.00;;;-145.39;61.70
37078;BME280;22989;55.998;37.212;2023-08-24T05:11:28;41705.75;;;-145.39;61.46
37078;BME280;22989;55.998;37.212;2023-08-24T05:13:57;41610.09;;;-145.39;61.13
37078;BME280;22989;55.998;37.212;2023-08-24T05:16:23;41553.50;;;-145.39;60.91
37078;BME280;22989;55.998;37.212;2023-08-24T05:18:49;41576.91;;;-145.39;60.71
37078;BME280;22989;55.998;37.212;2023-08-24T05:21:14;41557.41;;;-145.39;60.38
37078;BME280;22989;55.998;37.212;2023-08-24T05:23:40;41604.25;;;-145.39;60.00
37078;BME280;22989;55.998;37.212;2023-08-24T05:26:05;41653.06;;;-145.39;60.12
37078;BME280;22989;55.998;37.212;2023-08-24T05:28:31;41596.44;;;-145.39;60.36
37078;BME280;22989;55.998;37.212;2023-08-24T05:30:57;41578.88;;;-145.39;60.44
37078;BME280;22989;55.998;37.212;2023-08-24T05:33:24;41608.16;;;-145.39;60.41
37078;BME280;22989;55.998;37.212;2023-08-24T05:35:50;41639.38;;;-145.39;60.43
37078;BME280;22989;55.998;37.212;2023-08-24T05:38:16;41692.09;;;-145.39;60.61
37078;BME280;22989;55.998;37.212;2023-08-24T05:40:43;41781.91;;;-145.39;60.73
37078;BME280;22989;55.998;37.212;2023-08-24T05:43:09;41973.22;;;-145.39;60.80
37078;BME280;22989;55.998;37.212;2023-08-24T05:45:36;42039.59;;;-145.39;60.99
37078;BME280;22989;55.998;37.212;2023-08-24T05:48:02;41918.56;;;-145.39;61.12
37078;BME280;22989;55.998;37.212;2023-08-24T05:50:27;41899.03;;;-145.39;60.93
37078;BME280;22989;55.998;37.212;2023-08-24T05:52:53;41912.69;;;-145.39;60.82
37078;BME280;22989;55.998;37.212;2023-08-24T05:55:20;41928.31;;;-145.39;60.78
37078;BME280;22989;55.998;37.212;2023-08-24T05:57:45;41988.84;;;-145.39;60.74
37078;BME280;22989;55.998;37.212;2023-08-24T06:00:12;42039.59;;;-145.39;60.79
37078;BME280;22989;55.998;37.212;2023-08-24T06:02:38;42033.75;;;-145.39;60.81
37078;BME280;22989;55.998;37.212;2023-08-24T06:05:05;42039.59;;;-145.39;60.69
37078;BME280;22989;55.998;37.212;2023-08-24T06:07:32;41961.50;;;-145.39;60.82
37078;BME280;22989;55.998;37.212;2023-08-24T06:09:57;41936.13;;;-145.39;60.80
37078;BME280;22989;55.998;37.212;2023-08-24T06:12:23;41961.50;;;-145.39;60.78
37078;BME280;22989;55.998;37.212;2023-08-24T06:14:49;41951.75;;;-145.39;60.64
37078;BME280;22989;55.998;37.212;2023-08-24T06:17:15;41945.88;;;-145.39;60.59
37078;BME280;22989;55.998;37.212;2023-08-24T06:19:40;41904.91;;;-145.39;60.66
37078;BME280;22989;55.998;37.212;2023-08-24T06:22:07;41865.84;;;-145.39;60.45
37078;BME280;22989;55.998;37.212;2023-08-24T06:24:32;41842.41;;;-145.39;60.50
37078;BME280;22989;55.998;37.212;2023-08-24T06:26:58;41752.63;;;-145.39;60.04
37078;BME280;22989;55.998;37.212;2023-08-24T06:29:23;41752.63;;;-145.39;59.91
37078;BME280;22989;55.998;37.212;2023-08-24T06:31:49;41748.72;;;-145.39;59.85
37078;BME280;22989;55.998;37.212;2023-08-24T06:34:15;41766.28;;;-145.39;60.01
37078;BME280;22989;55.998;37.212;2023-08-24T06:36:40;41858.03;;;-145.39;60.12
37078;BME280;22989;55.998;37.212;2023-08-24T06:39:06;41914.66;;;-145.39;60.15
37078;BME280;22989;55.998;37.212;2023-08-24T06:41:35;41904.91;;;-145.39;60.27
37078;BME280;22989;55.998;37.212;2023-08-24T06:44:06;41947.84;;;-145.39;60.00
37078;BME280;22989;55.998;37.212;2023-08-24T06:46:31;41910.75;;;-145.39;60.06
37078;BME280;22989;55.998;37.212;2023-08-24T06:48:57;41838.50;;;-145.39;60.03
37078;BME280;22989;55.998;37.212;2023-08-24T06:51:24;41852.19;;;-145.39;59.89
37078;BME280;22989;55.998;37.212;2023-08-24T06:53:50;41832.66;;;-145.39;60.01
37078;BME280;22989;55.998;37.212;2023-08-24T06:56:16;41805.31;;;-145.39;60.03
37078;BME280;22989;55.998;37.212;2023-08-24T06:58:43;41795.56;;;-145.39;60.15
37078;BME280;22989;55.998;37.212;2023-08-24T07:01:08;41791.66;;;-145.39;60.13
37078;BME280;22989;55.998;37.212;2023-08-24T07:03:34;41787.75;;;-145.39;60.25
37078;BME280;22989;55.998;37.212;2023-08-24T07:05:59;41916.59;;;-145.39;60.36
37078;BME280;22989;55.998;37.212;2023-08-24T07:08:25;42018.13;;;-145.39;60.32
37078;BME280;22989;55.998;37.212;2023-08-24T07:10:51;42068.88;;;-145.39;60.39
37078;BME280;22989;55.998;37.212;2023-08-24T07:13:16;42063.03;;;-145.39;60.42
37078;BME280;22989;55.998;37.212;2023-08-24T07:15:42;42023.97;;;-145.39;60.65
37078;BME280;22989;55.998;37.212;2023-08-24T07:18:08;41971.28;;;-145.39;60.35
37078;BME280;22989;55.998;37.212;2023-08-24T07:20:35;41965.41;;;-145.39;60.43
37078;BME280;22989;55.998;37.212;2023-08-24T07:23:01;42000.56;;;-145.39;60.37
37078;BME280;22989;55.998;37.212;2023-08-24T07:25:27;42063.03;;;-145.39;60.54
37078;BME280;22989;55.998;37.212;2023-08-24T07:27:55;42162.59;;;-145.39;60.49
37078;BME280;22989;55.998;37.212;2023-08-24T07:30:25;42107.94;;;-145.39;60.53
37078;BME280;22989;55.998;37.212;2023-08-24T07:32:53;42025.94;;;-145.39;60.52
37078;BME280;22989;55.998;37.212;2023-08-24T07:35:18;41988.84;;;-145.39;60.36
37078;BME280;22989;55.998;37.212;2023-08-24T07:37:47;41881.47;;;-145.39;60.27
37078;BME280;22989;55.998;37.212;2023-08-24T07:40:13;41934.19;;;-145.39;60.11
37078;BME280;22989;55.998;37.212;2023-08-24T07:42:46;41791.66;;;-145.39;60.10
37078;BME280;22989;55.998;37.212;2023-08-24T07:45:13;41822.91;;;-145.39;59.98
37078;BME280;22989;55.998;37.212;2023-08-24T07:47:40;41885.38;;;-145.39;59.62
37078;BME280;22989;55.998;37.212;2023-08-24T07:50:07;41840.47;;;-145.39;59.79
37078;BME280;22989;55.998;37.212;2023-08-24T07:52:33;41881.47;;;-145.39;59.77
37078;BME280;22989;55.998;37.212;2023-08-24T07:54:58;41842.41;;;-145.39;59.72
37078;BME280;22989;55.998;37.212;2023-08-24T07:57:26;41912.69;;;-145.39;59.60
37078;BME280;22989;55.998;37.212;2023-08-24T07:59:52;41998.59;;;-145.39;59.62
37078;BME280;22989;55.998;37.212;2023-08-24T08:02:18;42000.56;;;-145.39;59.87
37078;BME280;22989;55.998;37.212;2023-08-24T08:04:44;42020.06;;;-145.39;59.46
37078;BME280;22989;55.998;37.212;2023-08-24T08:07:09;42045.47;;;-145.39;59.52
37078;BME280;22989;55.998;37.212;2023-08-24T08:09:36;42014.22;;;-145.39;59.64
37078;BME280;22989;55.998;37.212;2023-08-24T08:12:02;42025.94;;;-145.39;59.45
37078;BME280;22989;55.998;37.212;2023-08-24T08:14:29;41998.59;;;-145.39;59.20
37078;BME280;22989;55.998;37.212;2023-08-24T08:16:56;42018.13;;;-145.39;59.13
37078;BME280;22989;55.998;37.212;2023-08-24T08:19:21;42098.16;;;-145.39;58.97
37078;BME280;22989;55.998;37.212;2023-08-24T08:21:47;42092.31;;;-145.39;59.23
37078;BME280;22989;55.998;37.212;2023-08-24T08:24:13;41973.22;;;-145.39;59.02
37078;BME280;22989;55.998;37.212;2023-08-24T08:26:38;41963.47;;;-145.39;59.02
37078;BME280;22989;55.998;37.212;2023-08-24T08:29:04;42006.41;;;-145.39;59.03
37078;BME280;22989;55.998;37.212;2023-08-24T08:31:30;41945.88;;;-145.39;58.92
37078;BME280;22989;55.998;37.212;2023-08-24T08:33:56;41936.13;;;-145.39;59.15
37078;BME280;22989;55.998;37.212;2023-08-24T08:36:22;41867.81;;;-145.39;58.83
37078;BME280;22989;55.998;37.212;2023-08-24T08:38:47;41885.38;;;-145.39;58.53
37078;BME280;22989;55.998;37.212;2023-08-24T08:41:15;41963.47;;;-145.39;58.53
37078;BME280;22989;55.998;37.212;2023-08-24T08:43:42;42053.28;;;-145.39;58.87
37078;BME280;22989;55.998;37.212;2023-08-24T08:46:08;42027.88;;;-145.39;58.23
37078;BME280;22989;55.998;37.212;2023-08-24T08:48:34;41922.47;;;-145.39;58.42
37078;BME280;22989;55.998;37.212;2023-08-24T08:51:02;41963.47;;;-145.39;58.06
37078;BME280;22989;55.998;37.212;2023-08-24T08:53:28;41891.22;;;-145.39;57.96
37078;BME280;22989;55.998;37.212;2023-08-24T08:55:55;41852.19;;;-145.39;57.88
37078;BME280;22989;55.998;37.212;2023-08-24T08:58:23;41781.91;;;-145.39;57.58
37078;BME280;22989;55.998;37.212;2023-08-24T09:00:49;41801.41;;;-145.39;57.26
37078;BME280;22989;55.998;37.212;2023-08-24T09:03:17;41756.53;;;-145.39;57.23
37078;BME280;22989;55.998;37.212;2023-08-24T09:05:44;41813.13;;;-145.39;57.00
37078;BME280;22989;55.998;37.212;2023-08-24T09:08:15;41783.84;;;-145.39;56.96
37078;BME280;22989;55.998;37.212;2023-08-24T09:10:41;41690.16;;;-145.39;57.19
37078;BME280;22989;55.998;37.212;2023-08-24T09:13:07;41567.16;;;-145.39;56.75
37078;BME280;22989;55.998;37.212;2023-08-24T09:15:36;41487.13;;;-145.39;56.69
37078;BME280;22989;55.998;37.212;2023-08-24T09:18:04;41592.53;;;-145.39;56.46
37078;BME280;22989;55.998;37.212;2023-08-24T09:20:30;41672.56;;;-145.39;56.51
37078;BME280;22989;55.998;37.212;2023-08-24T09:22:57;41846.31;;;-145.39;56.56
37078;BME280;22989;55.998;37.212;2023-08-24T09:25:26;41867.81;;;-145.39;56.57
37078;BME280;22989;55.998;37.212;2023-08-24T09:28:04;41832.66;;;-145.39;56.51
37078;BME280;22989;55.998;37.212;2023-08-24T09:30:35;41873.66;;;-145.39;56.44
37078;BME280;22989;55.998;37.212;2023-08-24T09:33:10;41865.84;;;-145.39;56.27
37078;BME280;22989;55.998;37.212;2023-08-24T09:35:36;41877.56;;;-145.39;56.44
37078;BME280;22989;55.998;37.212;2023-08-24T09:38:22;41975.19;;;-145.39;56.49
37078;BME280;22989;55.998;37.212;2023-08-24T09:40:53;41947.84;;;-145.39;56.49
37078;BME280;22989;55.998;37.212;2023-08-24T09:43:19;41904.91;;;-145.39;56.38
37078;BME280;22989;55.998;37.212;2023-08-24T09:48:15;41984.94;;;-145.39;55.99
37078;BME280;22989;55.998;37.212;2023-08-24T09:50:44;41934.19;;;-145.39;56.09
37078;BME280;22989;55.998;37.212;2023-08-24T09:53:16;41994.69;;;-145.39;56.02
37078;BME280;22989;55.998;37.212;2023-08-24T09:55:44;42025.94;;;-145.39;56.08
37078;BME280;22989;55.998;37.212;2023-08-24T09:58:15;42107.94;;;-145.39;55.98
37078;BME280;22989;55.998;37.212;2023-08-24T10:00:41;42088.41;;;-145.39;56.01
37078;BME280;22989;55.998;37.212;2023-08-24T10:03:10;42146.97;;;-145.39;56.17
37078;BME280;22989;55.998;37.212;2023-08-24T10:05:37;42076.69;;;-145.39;56.09
37078;BME280;22989;55.998;37.212;2023-08-24T10:08:04;41986.88;;;-145.39;55.73
37078;BME280;22989;55.998;37.212;2023-08-24T10:10:34;41957.59;;;-145.39;55.58
37078;BME280;22989;55.998;37.212;2023-08-24T10:13:08;41887.31;;;-145.39;55.37
37078;BME280;22989;55.998;37.212;2023-08-24T10:15:35;41863.91;;;-145.39;55.09
37078;BME280;22989;55.998;37.212;2023-08-24T10:18:02;41897.09;;;-145.39;54.73
37078;BME280;22989;55.998;37.212;2023-08-24T10:20:29;41967.38;;;-145.39;54.63
37078;BME280;22989;55.998;37.212;2023-08-24T10:22:56;41986.88;;;-145.39;54.79
37078;BME280;22989;55.998;37.212;2023-08-24T10:25:22;42041.56;;;-145.39;54.98
37078;BME280;22989;55.998;37.212;2023-08-24T10:27:50;42025.94;;;-145.39;54.83
37078;BME280;22989;55.998;37.212;2023-08-24T10:30:17;42037.66;;;-145.39;54.78
37078;BME280;22989;55.998;37.212;2023-08-24T10:32:45;42033.75;;;-145.39;54.59
37078;BME280;22989;55.998;37.212;2023-08-24T10:35:11;42012.28;;;-145.39;54.50
37078;BME280;22989;55.998;37.212;2023-08-24T10:37:37;41951.75;;;-145.39;54.51
37078;BME280;22989;55.998;37.212;2023-08-24T10:40:04;41828.75;;;-145.39;54.59
37078;BME280;22989;55.998;37.212;2023-08-24T10:42:43;41797.53;;;-145.39;54.40
37078;BME280;22989;55.998;37.212;2023-08-24T10:45:13;41729.19;;;-145.39;54.49
37078;BME280;22989;55.998;37.212;2023-08-24T10:47:45;41696.00;;;-145.39;53.66
37078;BME280;22989;55.998;37.212;2023-08-24T10:50:12;41793.63;;;-145.39;53.46
37078;BME280;22989;55.998;37.212;2023-08-24T10:52:43;41803.38;;;-145.39;53.33
37078;BME280;22989;55.998;37.212;2023-08-24T10:55:23;41727.25;;;-145.39;53.56
37078;BME280;22989;55.998;37.212;2023-08-24T10:57:59;41674.53;;;-145.39;53.03
37078;BME280;22989;55.998;37.212;2023-08-24T11:00:27;41658.91;;;-145.39;52.83
37078;BME280;22989;55.998;37.212;2023-08-24T11:02:53;41688.19;;;-145.39;52.22
37078;BME280;22989;55.998;37.212;2023-08-24T11:05:30;41658.91;;;-145.39;51.43
37078;BME280;22989;55.998;37.212;2023-08-24T11:08:02;41668.66;;;-145.39;51.61
37078;BME280;22989;55.998;37.212;2023-08-24T11:13:14;41469.56;;;-145.39;51.39
37078;BME280;22989;55.998;37.212;2023-08-24T11:20:46;41297.78;;;-145.39;50.88
37078;BME280;22989;55.998;37.212;2023-08-24T11:23:12;41250.94;;;-145.39;51.09
37078;BME280;22989;55.998;37.212;2023-08-24T11:25:40;41282.16;;;-145.39;50.90
37078;BME280;22989;55.998;37.212;2023-08-24T11:28:05;41268.50;;;-145.39;50.26
37078;BME280;22989;55.998;37.212;2023-08-24T11:30:32;41352.44;;;-145.39;50.03
37078;BME280;22989;55.998;37.212;2023-08-24T11:33:01;41362.19;;;-145.39;49.81
37078;BME280;22989;55.998;37.212;2023-08-24T11:35:28;41373.91;;;-145.39;49.85
37078;BME280;22989;55.998;37.212;2023-08-24T11:37:56;41315.34;;;-145.39;49.87
37078;BME280;22989;55.998;37.212;2023-08-24T11:40:22;41239.22;;;-145.39;49.52
37078;BME280;22989;55.998;37.212;2023-08-24T11:42:55;41280.22;;;-145.39;49.55
37078;BME280;22989;55.998;37.212;2023-08-24T11:45:22;41293.88;;;-145.39;49.37
37078;BME280;22989;55.998;37.212;2023-08-24T11:47:48;41360.25;;;-145.39;49.24
37078;BME280;22989;55.998;37.212;2023-08-24T11:50:15;41358.28;;;-145.39;49.22
37078;BME280;22989;55.998;37.212;2023-08-24T11:52:44;41299.72;;;-145.39;49.29
37078;BME280;22989;55.998;37.212;2023-08-24T11:55:10;41163.09;;;-145.39;49.38
37078;BME280;22989;55.998;37.212;2023-08-24T11:57:36;40989.38;;;-145.39;49.29
37078;BME280;22989;55.998;37.212;2023-08-24T12:00:03;40954.25;;;-145.39;48.85
37078;BME280;22989;55.998;37.212;2023-08-24T12:02:33;40956.19;;;-145.39;48.47
37078;BME280;22989;55.998;37.212;2023-08-24T12:04:59;41055.75;;;-145.39;48.09
37078;BME280;22989;55.998;37.212;2023-08-24T12:07:25;41006.94;;;-145.39;47.85
37078;BME280;22989;55.998;37.212;2023-08-24T12:09:52;40913.25;;;-145.39;47.89
37078;BME280;22989;55.998;37.212;2023-08-24T12:12:19;40805.91;;;-145.39;47.80
37078;BME280;22989;55.998;37.212;2023-08-24T12:14:49;40718.09;;;-145.39;47.65
37078;BME280;22989;55.998;37.212;2023-08-24T12:17:16;40764.91;;;-145.39;47.24
37078;BME280;22989;55.998;37.212;2023-08-24T12:19:46;40774.69;;;-145.39;46.75
37078;BME280;22989;55.998;37.212;2023-08-24T12:22:21;40807.88;;;-145.39;46.85
37078;BME280;22989;55.998;37.212;2023-08-24T12:24:47;40741.50;;;-145.39;46.90
37078;BME280;22989;55.998;37.212;2023-08-24T12:27:22;40872.28;;;-145.39;46.98
37078;BME280;22989;55.998;37.212;2023-08-24T12:29:48;40930.81;;;-145.39;47.15
37078;BME280;22989;55.998;37.212;2023-08-24T12:32:15;40999.13;;;-145.39;47.32
37078;BME280;22989;55.998;37.212;2023-08-24T12:34:42;40999.13;;;-145.39;47.35
37078;BME280;22989;55.998;37.212;2023-08-24T12:37:10;41247.03;;;-145.39;47.44
37078;BME280;22989;55.998;37.212;2023-08-24T12:39:36;41455.91;;;-145.39;47.73
37078;BME280;22989;55.998;37.212;2023-08-24T12:42:03;41535.94;;;-145.39;48.03